createdAt,value
2019-03-28T00:03:56.384Z,12.53
2019-03-28T00:08:52.913Z,11.00
2019-03-28T00:13:49.612Z,9.70
2019-03-28T00:18:46.163Z,8.43
2019-03-28T00:24:03.500Z,9.47
2019-03-28T00:29:00.046Z,11.23
2019-03-28T00:33:56.737Z,12.50
2019-03-28T00:38:53.305Z,10.60
2019-03-28T00:43:50.008Z,13.57
2019-03-28T00:48:46.612Z,9.63
2019-03-28T00:53:43.161Z,11.07
2019-03-28T00:58:39.738Z,13.63
2019-03-28T01:03:36.587Z,11.73
2019-03-28T01:08:33.080Z,12.00
2019-03-28T01:13:29.627Z,10.73
2019-03-28T01:18:26.259Z,11.30
2019-03-28T01:23:22.748Z,12.37
2019-03-28T01:28:19.289Z,10.63
2019-03-28T01:33:15.908Z,12.90
2019-03-28T01:38:12.422Z,12.53
2019-03-28T01:43:08.939Z,13.43
2019-03-28T01:48:05.423Z,12.53
2019-03-28T01:53:02.087Z,12.37
2019-03-28T01:57:58.703Z,11.93
2019-03-28T02:02:55.225Z,14.17
2019-03-28T02:07:51.746Z,12.70
2019-03-28T02:12:48.402Z,11.80
2019-03-28T02:17:44.967Z,14.03
2019-03-28T02:22:41.599Z,12.23
2019-03-28T02:27:38.125Z,13.47
2019-03-28T02:32:34.655Z,12.20
2019-03-28T02:37:31.205Z,13.00
2019-03-28T02:42:28.136Z,13.07
2019-03-28T02:47:24.767Z,14.27
2019-03-28T02:52:21.696Z,16.87
2019-03-28T02:57:18.476Z,13.00
2019-03-28T03:02:15.004Z,14.53
2019-03-28T03:07:11.573Z,14.10
2019-03-28T03:12:08.103Z,13.63
2019-03-28T03:17:04.711Z,13.90
2019-03-28T03:22:01.282Z,18.70
2019-03-28T03:26:57.826Z,13.20
2019-03-28T03:31:54.405Z,13.33
2019-03-28T03:36:51.136Z,14.80
2019-03-28T03:41:47.765Z,16.30
2019-03-28T03:46:44.396Z,13.30
2019-03-28T03:51:41.164Z,13.43
2019-03-28T03:56:37.963Z,21.00
2019-03-28T04:01:34.584Z,13.97
2019-03-28T04:06:31.161Z,14.10
2019-03-28T04:11:27.768Z,16.77
2019-03-28T04:16:24.350Z,15.87
2019-03-28T04:21:21.029Z,16.20
2019-03-28T04:26:19.679Z,15.03
2019-03-28T04:31:16.324Z,15.63
2019-03-28T04:36:12.988Z,15.90
2019-03-28T04:41:09.561Z,18.43
2019-03-28T04:46:06.250Z,18.30
2019-03-28T04:51:02.866Z,20.43
2019-03-28T04:55:59.555Z,18.57
2019-03-28T05:00:56.197Z,16.93
2019-03-28T05:05:52.837Z,18.30
2019-03-28T05:10:49.464Z,19.63
2019-03-28T05:15:46.090Z,18.93
2019-03-28T05:20:42.650Z,21.43
2019-03-28T05:25:39.262Z,18.80
2019-03-28T05:30:35.830Z,19.53
2019-03-28T05:35:32.409Z,22.00
2019-03-28T05:40:29.053Z,24.20
2019-03-28T05:45:25.692Z,29.00
2019-03-28T05:50:22.339Z,33.17
2019-03-28T05:55:19.017Z,37.47
2019-03-28T06:00:15.958Z,33.73
2019-03-28T06:05:12.735Z,36.77
2019-03-28T06:10:10.463Z,31.03
2019-03-28T06:15:09.687Z,32.60
2019-03-28T06:20:13.043Z,39.03
2019-03-28T06:25:10.817Z,36.00
2019-03-28T06:30:11.138Z,33.07
2019-03-28T06:35:09.099Z,32.30
2019-03-28T06:40:06.529Z,30.30
2019-03-28T06:45:04.010Z,31.70
2019-03-28T06:50:00.922Z,28.80
2019-03-28T06:54:57.587Z,42.07
2019-03-28T06:59:54.307Z,26.83
2019-03-28T07:04:50.982Z,26.97
2019-03-28T07:09:47.667Z,28.37
2019-03-28T07:14:45.768Z,25.83
2019-03-28T07:19:43.965Z,21.03
2019-03-28T07:24:42.748Z,22.67
2019-03-28T07:29:50.191Z,20.03
2019-03-28T07:34:45.343Z,22.67
2019-03-28T07:39:44.817Z,17.10
2019-03-28T07:44:44.811Z,18.03
2019-03-28T07:49:41.690Z,19.80
2019-03-28T08:00:50.241Z,14.77
2019-03-28T08:05:46.943Z,12.97
2019-03-28T08:10:43.593Z,22.40
2019-03-28T08:15:40.396Z,14.07
2019-03-28T08:20:39.881Z,12.63
2019-03-28T08:25:36.623Z,12.47
2019-03-28T08:30:39.606Z,10.60
2019-03-28T08:35:37.465Z,9.93
2019-03-28T08:47:35.680Z,10.27
2019-03-28T08:52:30.571Z,7.90
2019-03-28T09:04:03.156Z,6.73
2019-03-28T09:09:42.239Z,9.57
2019-03-28T09:15:25.701Z,14.10
2019-03-28T09:21:47.531Z,10.70
2019-03-28T09:27:29.906Z,9.33
2019-03-28T09:33:23.497Z,9.53
2019-03-28T09:39:24.720Z,8.43
2019-03-28T09:44:54.021Z,7.37
2019-03-28T09:51:04.603Z,5.57
2019-03-28T10:02:31.749Z,3.57
2019-03-28T10:08:03.547Z,2.93
2019-03-28T10:13:17.309Z,2.63
2019-03-28T10:18:42.635Z,3.50
2019-03-28T10:24:19.969Z,5.23
2019-03-28T10:30:16.638Z,3.20
2019-03-28T10:36:32.746Z,4.07
2019-03-28T10:41:31.290Z,4.43
2019-03-28T10:46:56.127Z,4.40
2019-03-28T10:53:09.882Z,6.00
2019-03-28T10:57:51.269Z,3.10
2019-03-28T11:02:50.476Z,3.87
2019-03-28T11:07:50.527Z,3.40
2019-03-28T11:12:53.194Z,3.47
2019-03-28T11:17:54.459Z,2.10
2019-03-28T11:23:11.815Z,6.07
2019-03-28T11:28:11.703Z,2.03
2019-03-28T11:33:17.191Z,2.67
2019-03-28T11:38:14.410Z,2.57
2019-03-28T11:43:14.102Z,4.13
2019-03-28T11:48:25.143Z,2.60
2019-03-28T11:53:42.911Z,2.87
2019-03-28T11:58:52.132Z,3.83
2019-03-28T12:03:56.568Z,2.40
2019-03-28T12:09:13.063Z,4.03
2019-03-28T12:14:10.076Z,3.77
2019-03-28T12:19:07.982Z,3.23
2019-03-28T12:24:12.071Z,3.30
2019-03-28T12:29:31.856Z,4.50
2019-03-28T12:34:32.037Z,2.60
2019-03-28T12:40:00.107Z,3.47
2019-03-28T12:45:46.538Z,1.90
2019-03-28T12:50:23.665Z,2.83
2019-03-28T12:55:45.489Z,2.93
2019-03-28T13:00:43.462Z,4.47
2019-03-28T13:05:45.373Z,3.60
2019-03-28T13:10:42.196Z,4.03
2019-03-28T13:15:58.487Z,3.07
2019-03-28T13:21:12.798Z,3.33
2019-03-28T13:26:09.928Z,3.17
2019-03-28T13:31:14.220Z,3.33
2019-03-28T13:36:10.875Z,4.17
2019-03-28T13:41:07.792Z,4.47
2019-03-28T13:46:05.468Z,1.70
2019-03-28T13:51:03.637Z,4.90
2019-03-28T13:56:03.155Z,3.43
2019-03-28T14:00:59.720Z,3.63
2019-03-28T14:06:26.068Z,2.27
2019-03-28T14:11:52.900Z,2.60
2019-03-28T14:16:44.078Z,2.20
2019-03-28T14:21:42.486Z,2.70
2019-03-28T14:26:44.080Z,2.70
2019-03-28T14:31:42.985Z,2.97
2019-03-28T14:36:47.284Z,2.53
2019-03-28T14:41:46.638Z,2.93
2019-03-28T14:46:43.612Z,5.50
2019-03-28T14:51:49.936Z,6.33
2019-03-28T14:56:49.812Z,3.90
2019-03-28T15:02:05.274Z,2.40
2019-03-28T15:07:07.278Z,5.43
2019-03-28T15:12:03.616Z,3.30
2019-03-28T15:17:00.707Z,4.57
2019-03-28T15:22:06.612Z,3.83
2019-03-28T15:27:06.880Z,5.77
2019-03-28T15:32:13.215Z,4.50
2019-03-28T15:37:09.995Z,4.33
2019-03-28T15:42:06.923Z,4.47
2019-03-28T15:47:04.732Z,6.07
2019-03-28T15:52:05.267Z,5.23
2019-03-28T15:57:13.053Z,5.17
2019-03-28T16:02:10.015Z,7.20
2019-03-28T16:07:07.731Z,5.47
2019-03-28T16:12:06.546Z,7.67
2019-03-28T16:17:07.442Z,7.70
2019-03-28T16:22:11.600Z,5.43
2019-03-28T16:27:20.483Z,6.47
2019-03-28T16:32:17.550Z,6.47
2019-03-28T16:37:14.442Z,6.87
2019-03-28T16:42:28.936Z,5.30
2019-03-28T16:47:55.647Z,6.67
2019-03-28T16:53:12.158Z,7.17
2019-03-28T16:58:16.489Z,6.70
2019-03-28T17:03:24.441Z,8.70
2019-03-28T17:08:25.870Z,5.77
2019-03-28T17:13:22.889Z,7.47
2019-03-28T17:18:24.679Z,9.50
2019-03-28T17:23:28.733Z,4.77
2019-03-28T17:28:27.440Z,7.53
2019-03-28T17:33:29.287Z,5.47
2019-03-28T17:38:28.400Z,4.63
2019-03-28T17:43:25.137Z,6.23
2019-03-28T17:48:23.171Z,7.50
2019-03-28T17:53:23.962Z,11.33
2019-03-28T17:58:19.826Z,8.00
2019-03-28T18:03:30.223Z,7.10
2019-03-28T18:08:22.101Z,9.07
2019-03-28T18:13:27.295Z,12.17
2019-03-28T18:18:25.501Z,7.07
2019-03-28T18:23:26.223Z,7.00
2019-03-28T18:28:31.250Z,7.10
2019-03-28T18:33:35.242Z,7.13
2019-03-28T18:38:56.727Z,6.57
2019-03-28T18:44:05.347Z,10.57
2019-03-28T18:49:14.092Z,7.27
2019-03-28T18:54:21.592Z,7.77
2019-03-28T18:59:21.148Z,7.63
2019-03-28T19:04:20.065Z,8.97
2019-03-28T19:09:17.005Z,6.70
2019-03-28T19:14:15.073Z,7.13
2019-03-28T19:19:16.301Z,7.87
2019-03-28T19:24:22.940Z,8.27
2019-03-28T19:29:21.123Z,6.60
2019-03-28T19:34:30.296Z,6.90
2019-03-28T19:39:39.447Z,9.10
2019-03-28T19:44:55.021Z,7.70
2019-03-28T19:50:35.351Z,7.10
2019-03-28T19:55:39.607Z,6.93
2019-03-28T20:06:27.704Z,7.43
2019-03-28T20:11:28.894Z,6.80
2019-03-28T20:16:27.978Z,7.10
2019-03-28T20:21:26.255Z,6.70
2019-03-28T20:26:26.603Z,6.47
2019-03-28T20:37:37.848Z,10.73
2019-03-28T20:42:45.738Z,11.27
2019-03-28T20:47:53.341Z,7.13
2019-03-28T20:53:06.178Z,7.73
2019-03-28T20:58:11.928Z,9.50
2019-03-28T21:03:16.342Z,11.83
2019-03-28T21:08:13.246Z,6.60
2019-03-28T21:13:20.651Z,9.33
2019-03-28T21:18:13.083Z,9.37
2019-03-28T21:23:10.235Z,9.47
2019-03-28T21:28:20.519Z,11.13
2019-03-28T21:33:26.032Z,7.97
2019-03-28T21:39:08.351Z,9.10
2019-03-28T21:44:41.632Z,8.63
2019-03-28T21:49:45.392Z,11.07
2019-03-28T21:54:45.430Z,9.63
2019-03-28T21:59:53.169Z,11.77
2019-03-28T22:04:55.065Z,10.00
2019-03-28T22:10:11.613Z,11.97
2019-03-28T22:15:15.353Z,14.50
2019-03-28T22:20:19.359Z,11.10
2019-03-28T22:25:16.128Z,10.50
2019-03-28T22:30:16.544Z,13.40
2019-03-28T22:35:23.450Z,11.83
2019-03-28T22:40:25.110Z,12.47
2019-03-28T22:45:27.329Z,12.20
2019-03-28T22:50:36.385Z,9.43
2019-03-28T22:56:04.183Z,13.80
2019-03-28T23:01:03.676Z,10.17
2019-03-28T23:06:01.752Z,13.03
2019-03-28T23:11:04.531Z,10.50
2019-03-28T23:16:11.342Z,12.57
2019-03-28T23:21:08.235Z,13.10
2019-03-28T23:26:10.708Z,11.53
2019-03-28T23:31:25.514Z,9.73
2019-03-28T23:36:34.533Z,10.00
2019-03-28T23:41:52.540Z,10.50
2019-03-28T23:47:02.372Z,13.83
2019-03-28T23:52:20.698Z,12.03
2019-03-28T23:57:58.761Z,12.07
